Time;durP1;ratioP1;P1;durP2;ratioP2;P2;SDS_P1;SDS_P2;PMS_P1;PMS_P2;Temp;Humidity;BMP_temperature;BMP_pressure;BME280_temperature;BME280_humidity;BME280_pressure;Samples;Min_cycle;Max_cycle;Signal;HPM_P1;HPM_P2
2022/07/01 00:00:35;;;;;;;40.88;21.00;;;;;;;12.28;100.00;101350.47;5218217;28;20479;-72
2022/07/01 00:03:06;;;;;;;41.58;21.10;;;;;;;12.22;100.00;101360.78;5234979;28;20098;-72
2022/07/01 00:05:37;;;;;;;35.20;19.67;;;;;;;12.08;100.00;101359.13;5233039;28;20029;-72
2022/07/01 00:08:08;;;;;;;39.00;20.40;;;;;;;12.06;100.00;101347.69;5235428;28;20024;-72
2022/07/01 00:10:40;;;;;;;38.13;20.40;;;;;;;12.05;100.00;101346.00;5238738;28;20036;-72
2022/07/01 00:13:11;;;;;;;41.70;20.35;;;;;;;12.09;100.00;101339.44;5243052;28;20865;-72
2022/07/01 00:15:42;;;;;;;39.50;20.48;;;;;;;11.99;100.00;101336.59;5239855;28;20068;-72
2022/07/01 00:18:14;;;;;;;35.30;20.48;;;;;;;11.91;100.00;101347.88;5237836;28;20029;-72
2022/07/01 00:20:45;;;;;;;37.28;20.30;;;;;;;11.89;100.00;101333.78;5224482;28;20075;-72
2022/07/01 00:23:17;;;;;;;39.25;20.77;;;;;;;11.90;100.00;101339.97;5233659;28;20017;-72
2022/07/01 00:25:48;;;;;;;49.95;23.77;;;;;;;12.06;100.00;101331.63;5230945;28;20040;-72
2022/07/01 00:28:20;;;;;;;44.83;22.13;;;;;;;12.04;100.00;101329.09;5232567;28;20028;-72
2022/07/01 00:30:52;;;;;;;42.42;21.27;;;;;;;12.05;100.00;101321.94;5231382;28;20020;-72
2022/07/01 00:33:23;;;;;;;50.45;23.25;;;;;;;12.10;100.00;101335.78;5230885;28;20035;-72
2022/07/01 00:35:55;;;;;;;45.67;21.92;;;;;;;12.03;100.00;101316.69;5234907;28;20138;-72
2022/07/01 00:38:26;;;;;;;53.60;25.00;;;;;;;12.12;100.00;101312.47;5240421;28;20109;-72
2022/07/01 00:40:57;;;;;;;42.45;22.15;;;;;;;12.04;100.00;101309.50;5234453;28;20522;-72
2022/07/01 00:43:35;;;;;;;46.17;22.17;;;;;;;12.04;100.00;101312.19;5246567;28;20086;-71
2022/07/01 00:46:06;;;;;;;45.20;23.15;;;;;;;12.00;100.00;101303.53;5244245;28;20134;-72
2022/07/01 00:48:38;;;;;;;50.40;22.45;;;;;;;12.06;100.00;101312.91;5237495;28;20615;-72
2022/07/01 00:51:10;;;;;;;45.80;22.98;;;;;;;12.05;100.00;101304.06;5236729;28;20041;-72
2022/07/01 00:53:42;;;;;;;46.80;23.02;;;;;;;12.04;100.00;101310.38;5231909;28;20025;-72
2022/07/01 00:56:13;;;;;;;43.63;22.85;;;;;;;12.03;100.00;101311.34;5229024;28;20049;-72
2022/07/01 00:58:45;;;;;;;44.67;21.83;;;;;;;12.10;100.00;101319.75;5236846;28;20063;-72
2022/07/01 01:01:17;;;;;;;49.42;22.45;;;;;;;12.11;100.00;101316.94;5230786;28;20586;-72
2022/07/01 01:03:49;;;;;;;45.65;23.48;;;;;;;12.09;100.00;101320.72;5232249;28;20132;-72
2022/07/01 01:06:21;;;;;;;45.83;22.90;;;;;;;12.13;100.00;101327.53;5237047;28;20034;-72
2022/07/01 01:08:52;;;;;;;46.47;23.85;;;;;;;12.20;100.00;101335.97;5231128;28;20059;-72
2022/07/01 01:11:23;;;;;;;46.67;23.55;;;;;;;12.22;100.00;101342.91;5235003;28;20021;-73
2022/07/01 01:13:55;;;;;;;50.58;25.20;;;;;;;12.28;100.00;101341.59;5234973;28;20545;-72
2022/07/01 01:16:26;;;;;;;51.35;24.95;;;;;;;12.24;100.00;101351.66;5239176;28;20056;-72
2022/07/01 01:18:57;;;;;;;56.13;26.00;;;;;;;12.31;100.00;101357.38;5231752;28;20044;-72
2022/07/01 01:21:29;;;;;;;54.17;25.45;;;;;;;12.27;100.00;101363.94;5240442;28;20086;-72
2022/07/01 01:24:00;;;;;;;56.33;26.73;;;;;;;12.32;100.00;101368.00;5234838;28;20068;-73
2022/07/01 01:26:31;;;;;;;48.47;24.88;;;;;;;12.31;100.00;101366.28;5235891;28;20111;-72
2022/07/01 01:29:03;;;;;;;56.58;26.05;;;;;;;12.35;100.00;101366.91;5236734;28;20079;-72
2022/07/01 01:31:34;;;;;;;56.90;25.85;;;;;;;12.40;100.00;101366.56;5238149;28;20467;-72
2022/07/01 01:34:05;;;;;;;55.63;25.85;;;;;;;12.42;100.00;101372.66;5236946;28;20052;-72
2022/07/01 01:36:36;;;;;;;54.50;25.30;;;;;;;12.41;100.00;101370.97;5235860;28;20033;-72
2022/07/01 01:41:39;;;;;;;55.15;27.33;;;;;;;12.41;100.00;101368.28;5235274;28;20083;-72
2022/07/01 01:44:11;;;;;;;53.53;26.52;;;;;;;12.41;100.00;101363.78;5241769;28;20064;-72
2022/07/01 01:46:42;;;;;;;51.53;25.90;;;;;;;12.48;100.00;101361.47;5238146;28;20037;-73
2022/07/01 01:49:14;;;;;;;55.70;27.55;;;;;;;12.43;100.00;101353.81;5236869;28;20029;-72
2022/07/01 01:51:45;;;;;;;55.92;27.17;;;;;;;12.43;100.00;101359.16;5249218;28;20082;-72
2022/07/01 01:54:16;;;;;;;60.83;26.73;;;;;;;12.44;100.00;101368.03;5231691;28;20029;-72
2022/07/01 01:56:47;;;;;;;56.10;26.60;;;;;;;12.44;100.00;101362.69;5237955;28;20056;-72
2022/07/01 01:59:19;;;;;;;52.15;27.30;;;;;;;12.46;100.00;101363.41;5237779;28;20029;-72
2022/07/01 02:01:50;;;;;;;61.90;28.55;;;;;;;12.59;100.00;101356.16;5235725;28;20029;-72
2022/07/01 02:04:23;;;;;;;54.30;27.92;;;;;;;12.59;100.00;101366.00;5238919;28;20111;-72
2022/07/01 02:06:54;;;;;;;53.70;27.25;;;;;;;12.53;100.00;101375.38;5241633;28;20120;-72
2022/07/01 02:09:26;;;;;;;57.75;27.60;;;;;;;12.57;100.00;101371.47;5245069;28;20041;-72
2022/07/01 02:11:57;;;;;;;52.05;27.42;;;;;;;12.48;100.00;101377.53;5242301;28;20572;-73
2022/07/01 02:14:29;;;;;;;54.15;27.65;;;;;;;12.47;100.00;101378.50;5238085;28;20029;-72
2022/07/01 02:17:00;;;;;;;50.65;27.23;;;;;;;12.50;100.00;101384.50;5241298;28;20024;-71
2022/07/01 02:19:31;;;;;;;49.80;26.85;;;;;;;12.49;100.00;101388.13;5230293;28;20387;-72
2022/07/01 02:22:03;;;;;;;50.47;26.48;;;;;;;12.50;100.00;101394.31;5244405;28;20544;-72
2022/07/01 02:24:34;;;;;;;57.35;26.70;;;;;;;12.50;100.00;101405.91;5238379;28;20538;-72
2022/07/01 02:27:05;;;;;;;50.33;25.88;;;;;;;12.49;100.00;101406.00;5245971;28;20036;-72
2022/07/01 02:29:36;;;;;;;51.92;26.60;;;;;;;12.46;100.00;101415.09;5239421;28;20028;-72
2022/07/01 02:32:08;;;;;;;49.75;26.20;;;;;;;12.42;100.00;101412.78;5239374;28;20431;-72
2022/07/01 02:34:39;;;;;;;50.80;26.70;;;;;;;12.43;100.00;101375.22;5245404;28;20025;-72
2022/07/01 02:37:11;;;;;;;51.53;26.67;;;;;;;12.42;100.00;101353.91;5237356;28;20055;-72
2022/07/01 02:39:42;;;;;;;48.20;24.90;;;;;;;12.40;100.00;101355.84;5245318;28;20029;-72
2022/07/01 02:42:34;;;;;;;56.42;27.15;;;;;;;12.43;100.00;101374.38;5244066;28;20029;-72
2022/07/01 02:45:08;;;;;;;49.95;26.45;;;;;;;12.42;100.00;101375.31;5236961;28;20090;-72
2022/07/01 02:47:41;;;;;;;50.47;26.83;;;;;;;12.38;100.00;101385.41;5240435;28;20028;-72
2022/07/01 02:50:13;;;;;;;48.83;25.23;;;;;;;12.41;100.00;101389.69;5246362;28;20024;-71
2022/07/01 02:52:45;;;;;;;49.90;25.65;;;;;;;12.38;100.00;101398.78;5233781;28;20078;-72
2022/07/01 02:55:17;;;;;;;53.25;25.88;;;;;;;12.42;100.00;101397.56;5244596;28;20044;-72
2022/07/01 02:57:51;;;;;;;54.90;27.50;;;;;;;12.50;100.00;101400.56;5242332;28;20475;-72
2022/07/01 03:00:22;;;;;;;;;;;;;;;12.52;100.00;101400.41;5231938;28;20521;-72
2022/07/01 03:02:53;;;;;;;59.80;30.25;;;;;;;12.61;100.00;101402.38;5234234;28;19912;-71
2022/07/01 03:05:25;;;;;;;61.67;28.95;;;;;;;12.60;100.00;101397.16;5240162;28;20147;-72
2022/07/01 03:07:56;;;;;;;61.88;29.58;;;;;;;12.52;100.00;101401.28;5239764;28;20029;-73
2022/07/01 03:10:27;;;;;;;57.95;29.92;;;;;;;12.47;100.00;101397.25;5234634;28;20035;-72
2022/07/01 03:12:59;;;;;;;54.65;29.05;;;;;;;12.44;100.00;101394.78;5238553;28;20025;-72
2022/07/01 03:15:30;;;;;;;59.17;30.00;;;;;;;12.48;100.00;101398.94;5234447;28;20025;-72
2022/07/01 03:18:02;;;;;;;68.45;30.45;;;;;;;12.45;100.00;101399.19;5240104;28;20483;-72
2022/07/01 03:20:33;;;;;;;63.20;31.80;;;;;;;12.49;100.00;101400.66;5241643;28;20494;-71
2022/07/01 03:23:04;;;;;;;59.17;29.67;;;;;;;12.33;100.00;101391.13;5231200;28;20029;-72
2022/07/01 03:25:36;;;;;;;60.20;30.30;;;;;;;12.37;100.00;101391.75;5239489;28;20124;-72
2022/07/01 03:28:07;;;;;;;57.45;29.98;;;;;;;12.32;100.00;101399.25;5238632;28;20037;-72
2022/07/01 03:30:38;;;;;;;59.63;30.27;;;;;;;12.32;100.00;101394.75;5240527;28;20025;-72
2022/07/01 03:33:09;;;;;;;63.60;30.38;;;;;;;12.32;100.00;101402.78;5239589;28;20182;-72
2022/07/01 03:35:45;;;;;;;70.45;32.90;;;;;;;12.34;100.00;101408.00;5241835;28;20029;-71
2022/07/01 03:38:16;;;;;;;65.28;31.13;;;;;;;12.36;100.00;101425.66;5238689;28;21624;-71
2022/07/01 03:40:48;;;;;;;57.97;31.58;;;;;;;12.25;100.00;101438.13;5237130;28;20125;-72
2022/07/01 03:43:19;;;;;;;67.07;32.53;;;;;;;12.34;100.00;101432.94;5251679;28;20025;-72
2022/07/01 03:45:50;;;;;;;69.13;32.45;;;;;;;12.33;100.00;101435.72;5240730;28;20494;-72
2022/07/01 03:48:22;;;;;;;64.38;32.55;;;;;;;12.30;100.00;101439.50;5241245;28;20032;-72
2022/07/01 03:50:53;;;;;;;63.72;32.92;;;;;;;12.33;100.00;101446.44;5240165;28;20052;-71
2022/07/01 03:56:15;;;;;;;73.75;35.28;;;;;;;12.43;100.00;101454.66;5230211;28;20404;-72
2022/07/01 03:58:46;;;;;;;66.05;33.10;;;;;;;12.34;100.00;101461.53;5231896;28;21240;-71
2022/07/01 04:01:17;;;;;;;69.07;34.15;;;;;;;12.45;100.00;101464.28;5239017;28;20335;-72
2022/07/01 04:03:49;;;;;;;76.53;37.40;;;;;;;12.49;100.00;101467.56;5242108;28;20458;-71
2022/07/01 04:06:20;;;;;;;75.18;36.70;;;;;;;12.39;100.00;101472.75;5238876;28;20024;-71
2022/07/01 04:08:53;;;;;;;65.15;34.03;;;;;;;12.39;100.00;101466.53;5243530;28;21285;-71
2022/07/01 04:11:24;;;;;;;74.95;37.38;;;;;;;12.47;100.00;101474.88;5237931;28;20025;-72
2022/07/01 04:13:55;;;;;;;65.90;36.10;;;;;;;12.42;100.00;101460.97;5239806;28;20086;-72
2022/07/01 04:16:27;;;;;;;71.40;36.72;;;;;;;12.39;100.00;101463.84;5237494;28;20120;-72
2022/07/01 04:18:58;;;;;;;75.35;36.38;;;;;;;12.58;100.00;101466.88;5224887;28;20691;-72
2022/07/01 04:24:22;;;;;;;63.17;34.90;;;;;;;12.40;100.00;101466.44;5228586;28;20041;-72
2022/07/01 04:26:53;;;;;;;64.03;33.05;;;;;;;12.34;100.00;101454.34;5239017;28;20375;-72
2022/07/01 04:29:25;;;;;;;56.58;31.10;;;;;;;12.35;100.00;101456.06;5242175;28;20032;-72
2022/07/01 04:31:57;;;;;;;54.80;29.35;;;;;;;12.35;100.00;101464.09;5234793;28;20108;-72
2022/07/01 04:34:28;;;;;;;49.90;27.40;;;;;;;12.42;100.00;101464.47;5240078;28;20067;-71
2022/07/01 04:36:59;;;;;;;48.75;26.60;;;;;;;12.27;100.00;101468.28;5235030;28;20132;-72
2022/07/01 04:39:31;;;;;;;46.85;25.05;;;;;;;12.33;100.00;101479.41;5235227;28;20747;-71
2022/07/01 04:42:03;;;;;;;43.17;24.23;;;;;;;12.25;100.00;101476.44;5235435;28;20753;-71
2022/07/01 04:44:37;;;;;;;44.92;23.77;;;;;;;12.41;100.00;101473.50;5234985;28;20055;-71
2022/07/01 04:47:08;;;;;;;41.17;22.73;;;;;;;12.32;100.00;101475.03;5238078;28;20364;-71
2022/07/01 04:49:39;;;;;;;42.70;22.77;;;;;;;12.43;100.00;101479.59;5238574;28;20037;-71
2022/07/01 04:52:11;;;;;;;38.25;22.17;;;;;;;12.45;100.00;101472.28;5234112;28;20028;-71
2022/07/01 04:54:42;;;;;;;42.50;22.50;;;;;;;12.52;100.00;101473.56;5227754;28;20454;-71
2022/07/01 04:57:13;;;;;;;40.50;22.67;;;;;;;12.51;100.00;101473.66;5231379;28;20025;-71
2022/07/01 04:59:44;;;;;;;36.63;21.02;;;;;;;12.49;100.00;101467.56;5232408;28;20848;-71
2022/07/01 05:02:16;;;;;;;39.10;21.83;;;;;;;12.49;100.00;101465.75;5232129;28;20463;-71
2022/07/01 05:04:47;;;;;;;35.78;19.90;;;;;;;12.52;100.00;101475.34;5246622;28;20037;-71
2022/07/01 05:07:31;;;;;;;37.08;21.15;;;;;;;12.54;100.00;101471.63;5236411;28;20078;-71
2022/07/01 05:10:02;;;;;;;40.08;21.42;;;;;;;12.53;100.00;101475.25;5239127;28;20087;-71
2022/07/01 05:12:33;;;;;;;35.85;20.33;;;;;;;12.74;100.00;101491.53;5234298;28;20052;-71
2022/07/01 05:15:06;;;;;;;35.40;21.45;;;;;;;12.69;100.00;101490.16;5232301;28;20110;-71
2022/07/01 05:23:17;;;;;;;30.48;19.00;;;;;;;12.84;100.00;101491.69;5233382;28;20033;-72
2022/07/01 05:25:49;;;;;;;30.23;18.83;;;;;;;12.89;100.00;101483.31;5238257;28;20025;-71
2022/07/01 05:28:20;;;;;;;31.90;18.45;;;;;;;13.02;100.00;101489.44;5233858;28;20029;-71
2022/07/01 05:30:51;;;;;;;29.02;18.15;;;;;;;12.91;100.00;101490.25;5248991;28;20067;-71
2022/07/01 05:33:26;;;;;;;29.25;18.70;;;;;;;12.93;100.00;101485.63;5243410;28;20426;-72
2022/07/01 05:35:57;;;;;;;25.85;16.88;;;;;;;12.82;100.00;101484.75;5252142;28;20029;-71
2022/07/01 05:38:28;;;;;;;23.98;17.25;;;;;;;12.95;100.00;101485.53;5245268;28;20082;-71
2022/07/01 05:41:00;;;;;;;23.10;16.90;;;;;;;12.84;100.00;101490.84;5235246;28;20052;-71
2022/07/01 05:43:32;;;;;;;25.17;17.00;;;;;;;12.87;100.00;101491.47;5231390;28;20033;-71
2022/07/01 05:46:03;;;;;;;29.20;17.55;;;;;;;12.95;100.00;101481.00;5235461;28;20036;-71
2022/07/01 05:48:34;;;;;;;27.15;17.10;;;;;;;12.90;100.00;101493.88;5232823;28;20072;-71
2022/07/01 05:51:06;;;;;;;30.38;18.35;;;;;;;13.01;100.00;101494.91;5234627;28;20156;-71
2022/07/01 05:53:37;;;;;;;29.33;18.48;;;;;;;12.86;100.00;101504.97;5230479;28;20033;-71
2022/07/01 05:56:09;;;;;;;30.02;18.10;;;;;;;12.90;100.00;101503.75;5226340;28;20136;-71
2022/07/01 05:58:40;;;;;;;28.27;18.70;;;;;;;13.05;100.00;101496.38;5235519;28;20559;-71
2022/07/01 06:01:12;;;;;;;25.52;18.80;;;;;;;13.08;100.00;101502.38;5229417;28;20116;-71
2022/07/01 06:03:43;;;;;;;27.42;18.55;;;;;;;13.22;100.00;101495.09;5234744;28;20071;-71
2022/07/01 06:06:14;;;;;;;29.48;19.23;;;;;;;13.31;100.00;101489.06;5234725;28;20029;-71
2022/07/01 06:08:46;;;;;;;24.65;17.67;;;;;;;13.30;100.00;101495.38;5233133;28;20033;-72
2022/07/01 06:11:17;;;;;;;27.00;17.83;;;;;;;13.31;100.00;101497.09;5230571;28;20688;-71
2022/07/01 06:13:48;;;;;;;24.45;17.23;;;;;;;13.19;100.00;101493.47;5231157;28;20033;-71
2022/07/01 06:16:20;;;;;;;21.48;16.25;;;;;;;13.14;100.00;101507.25;5227029;28;20071;-71
2022/07/01 06:18:51;;;;;;;21.27;16.50;;;;;;;13.07;100.00;101502.47;5241219;28;20044;-71
2022/07/01 06:21:22;;;;;;;20.65;15.75;;;;;;;13.08;100.00;101507.72;5240793;28;20034;-71
2022/07/01 06:23:53;;;;;;;22.65;15.38;;;;;;;13.15;100.00;101497.38;5241273;28;20112;-71
2022/07/01 06:26:25;;;;;;;21.08;16.25;;;;;;;13.21;100.00;101501.41;5239572;28;20185;-71
2022/07/01 06:28:56;;;;;;;21.20;15.38;;;;;;;13.12;100.00;101493.13;5240884;28;20255;-71
2022/07/01 06:31:27;;;;;;;19.83;15.00;;;;;;;13.19;100.00;101498.84;5236946;28;20131;-71
2022/07/01 06:33:59;;;;;;;21.20;15.02;;;;;;;13.24;100.00;101501.19;5244783;28;20029;-71
2022/07/01 06:36:31;;;;;;;19.23;15.13;;;;;;;13.17;100.00;101489.22;5238902;28;20072;-71
2022/07/01 06:39:02;;;;;;;21.02;13.65;;;;;;;13.16;100.00;101496.41;5238764;28;20025;-72
2022/07/01 06:41:33;;;;;;;21.35;13.85;;;;;;;13.25;100.00;101494.84;5240293;28;20037;-71
2022/07/01 06:44:05;;;;;;;18.80;12.75;;;;;;;13.21;100.00;101490.69;5232066;28;20683;-71
2022/07/01 06:46:36;;;;;;;23.02;13.75;;;;;;;13.27;100.00;101485.72;5226690;28;20497;-72
2022/07/01 06:49:07;;;;;;;16.55;13.20;;;;;;;13.31;100.00;101491.72;5229505;28;20033;-72
2022/07/01 06:51:39;;;;;;;16.63;11.43;;;;;;;13.26;100.00;101486.69;5237626;28;20024;-71
2022/07/01 06:54:10;;;;;;;16.08;10.90;;;;;;;13.27;100.00;101488.41;5241535;28;20056;-72
2022/07/01 06:56:42;;;;;;;16.33;10.57;;;;;;;13.40;100.00;101491.00;5233733;28;20037;-71
2022/07/01 06:59:14;;;;;;;16.23;11.23;;;;;;;13.50;100.00;101483.94;5246213;28;20033;-71
2022/07/01 07:01:46;;;;;;;13.30;9.85;;;;;;;13.48;100.00;101493.94;5244717;28;20031;-72
2022/07/01 07:04:17;;;;;;;13.45;10.25;;;;;;;13.41;100.00;101500.75;5243464;28;20983;-72
2022/07/01 07:06:48;;;;;;;13.98;8.65;;;;;;;13.44;100.00;101489.81;5242733;28;20033;-71
2022/07/01 07:09:20;;;;;;;15.43;9.27;;;;;;;13.59;100.00;101511.00;5241069;28;20045;-72
2022/07/01 07:11:51;;;;;;;13.32;8.23;;;;;;;13.60;100.00;101516.25;5236814;28;20209;-72
2022/07/01 07:14:22;;;;;;;12.13;7.38;;;;;;;13.73;100.00;101519.69;5242722;28;20043;-72
2022/07/01 07:16:55;;;;;;;9.63;7.10;;;;;;;13.90;100.00;101531.75;5244225;28;20110;-72
2022/07/01 07:19:26;;;;;;;7.85;5.43;;;;;;;13.89;100.00;101532.72;5250486;28;20036;-71
2022/07/01 07:21:57;;;;;;;8.73;4.60;;;;;;;13.82;100.00;101527.97;5244775;28;20037;-72
2022/07/01 07:24:28;;;;;;;8.43;4.70;;;;;;;13.93;100.00;101530.66;5247693;28;20379;-72
2022/07/01 07:27:00;;;;;;;8.88;4.10;;;;;;;13.94;100.00;101527.00;5240509;28;20039;-71
2022/07/01 07:29:31;;;;;;;9.05;4.45;;;;;;;13.96;100.00;101530.41;5244508;28;20091;-71
2022/07/01 07:32:03;;;;;;;8.50;3.35;;;;;;;13.95;100.00;101538.56;5244209;28;20506;-72
2022/07/01 07:34:34;;;;;;;7.07;3.42;;;;;;;13.89;100.00;101524.66;5245760;28;20119;-71
2022/07/01 07:37:06;;;;;;;7.32;3.60;;;;;;;13.87;100.00;101529.31;5246804;28;20037;-71
2022/07/01 07:39:37;;;;;;;8.20;3.47;;;;;;;13.96;100.00;101525.03;5247199;28;20044;-72
2022/07/01 07:42:08;;;;;;;6.38;3.10;;;;;;;13.96;100.00;101534.91;5245512;28;20105;-71
2022/07/01 07:44:40;;;;;;;7.00;3.05;;;;;;;13.96;100.00;101534.91;5243462;28;20394;-71
2022/07/01 07:47:12;;;;;;;5.65;3.00;;;;;;;13.97;100.00;101542.84;5248554;28;20091;-71
2022/07/01 07:49:43;;;;;;;5.97;2.63;;;;;;;14.13;100.00;101537.09;5250885;28;20492;-71
2022/07/01 07:52:14;;;;;;;5.97;2.15;;;;;;;14.22;100.00;101544.41;5246198;28;20063;-71
2022/07/01 07:54:45;;;;;;;5.50;1.98;;;;;;;14.42;100.00;101552.66;5242788;28;20035;-71
2022/07/01 07:57:17;;;;;;;4.45;1.63;;;;;;;14.32;100.00;101553.44;5252307;28;20124;-72
2022/07/01 07:59:48;;;;;;;6.60;1.40;;;;;;;14.39;100.00;101558.28;5249661;28;20375;-72
2022/07/01 08:02:19;;;;;;;3.38;1.55;;;;;;;14.53;100.00;101552.63;5238792;28;20028;-72
2022/07/01 08:04:51;;;;;;;4.65;1.40;;;;;;;14.50;100.00;101558.28;5255148;28;20511;-71
2022/07/01 08:07:22;;;;;;;5.80;1.70;;;;;;;14.48;100.00;101552.19;5250854;28;21057;-71
2022/07/01 08:09:55;;;;;;;4.82;1.23;;;;;;;14.62;100.00;101559.13;5239343;28;20475;-71
2022/07/01 08:12:26;;;;;;;4.28;1.30;;;;;;;14.69;100.00;101561.19;5244401;28;20025;-72
2022/07/01 08:14:58;;;;;;;5.60;1.40;;;;;;;14.82;100.00;101562.84;5234000;28;20025;-71
2022/07/01 08:17:30;;;;;;;3.75;1.20;;;;;;;14.87;100.00;101569.53;5234459;28;20045;-72
2022/07/01 08:20:01;;;;;;;4.65;1.30;;;;;;;14.95;100.00;101566.22;5245099;28;20052;-72
2022/07/01 08:22:33;;;;;;;6.80;1.33;;;;;;;15.06;100.00;101574.22;5250332;28;20022;-72
2022/07/01 08:25:05;;;;;;;3.55;1.05;;;;;;;15.02;100.00;101570.09;5251169;28;20024;-71
2022/07/01 08:27:36;;;;;;;4.20;1.05;;;;;;;15.17;98.16;101577.84;5251707;28;20707;-70
2022/07/01 08:30:08;;;;;;;3.20;1.10;;;;;;;15.17;98.75;101585.91;5248231;28;20029;-72
2022/07/01 08:32:39;;;;;;;4.28;1.23;;;;;;;15.24;98.00;101579.03;5247409;28;20033;-72
2022/07/01 08:35:11;;;;;;;5.70;1.20;;;;;;;15.31;96.54;101582.91;5251212;28;20588;-71
2022/07/01 08:37:42;;;;;;;4.13;1.20;;;;;;;15.41;95.77;101585.69;5251255;28;20028;-72
2022/07/01 08:40:13;;;;;;;3.42;1.13;;;;;;;15.44;99.92;101588.97;5246951;28;20128;-72
2022/07/01 08:42:45;;;;;;;5.28;1.10;;;;;;;15.60;100.00;101590.34;5250314;28;20071;-72
2022/07/01 08:45:16;;;;;;;3.58;1.17;;;;;;;15.72;95.04;101588.41;5244227;28;20048;-72
2022/07/01 08:47:52;;;;;;;5.43;1.40;;;;;;;15.83;98.38;101594.59;5267707;28;20231;-72
2022/07/01 08:50:25;;;;;;;3.90;1.30;;;;;;;16.00;100.00;101598.53;5248279;28;20309;-71
2022/07/01 08:52:57;;;;;;;4.90;1.50;;;;;;;16.12;95.79;101601.97;5252198;28;20025;-72
2022/07/01 08:55:29;;;;;;;4.88;1.33;;;;;;;15.97;97.05;101611.38;5248856;28;20046;-72
2022/07/01 08:58:00;;;;;;;4.22;1.10;;;;;;;16.11;96.04;101612.88;5253935;28;20029;-72
2022/07/01 09:00:32;;;;;;;4.97;1.35;;;;;;;16.01;95.89;101618.22;5250230;28;20025;-72
2022/07/01 09:03:03;;;;;;;6.28;1.42;;;;;;;16.04;91.68;101623.34;5251634;28;20056;-72
2022/07/01 09:05:36;;;;;;;3.17;1.23;;;;;;;16.07;93.58;101618.53;5252967;28;20491;-71
2022/07/01 09:08:07;;;;;;;5.05;1.25;;;;;;;16.00;96.66;101616.50;5249216;28;20021;-73
2022/07/01 09:10:39;;;;;;;3.78;1.25;;;;;;;16.08;92.14;101620.22;5249405;28;20751;-72
2022/07/01 09:13:12;;;;;;;5.05;1.30;;;;;;;16.10;93.20;101611.19;5252335;28;20588;-73
2022/07/01 09:15:44;;;;;;;7.13;1.35;;;;;;;16.24;92.98;101611.69;5249171;28;20044;-73
2022/07/01 09:18:17;;;;;;;4.15;1.23;;;;;;;16.39;95.56;101608.59;5250611;28;20415;-73
2022/07/01 09:20:49;;;;;;;5.15;1.45;;;;;;;16.45;91.29;101605.34;5250783;28;20033;-73
2022/07/01 09:23:20;;;;;;;5.97;1.48;;;;;;;16.44;91.69;101609.03;5254698;28;20399;-72
2022/07/01 09:25:51;;;;;;;5.90;1.40;;;;;;;16.50;96.33;101615.72;5249341;28;20483;-72
2022/07/01 09:28:26;;;;;;;4.70;1.13;;;;;;;16.72;92.52;101620.91;5253142;28;20068;-73
2022/07/01 09:30:59;;;;;;;4.65;1.60;;;;;;;16.85;87.84;101613.41;5252465;28;20466;-73
2022/07/01 09:33:30;;;;;;;8.80;1.85;;;;;;;16.93;91.60;101623.53;5247303;28;20052;-72
2022/07/01 09:36:02;;;;;;;5.05;1.40;;;;;;;17.11;92.71;101631.75;5250300;28;20547;-73
2022/07/01 09:38:33;;;;;;;3.95;1.10;;;;;;;17.06;88.53;101625.91;5247879;28;20151;-73
2022/07/01 09:41:11;;;;;;;4.43;1.40;;;;;;;17.05;83.03;101629.63;5247950;28;20037;-72
2022/07/01 09:43:42;;;;;;;3.00;1.10;;;;;;;17.09;81.45;101625.66;5254210;28;20024;-73
2022/07/01 09:46:14;;;;;;;4.45;1.30;;;;;;;17.13;84.52;101629.78;5248435;28;20383;-72
2022/07/01 09:48:45;;;;;;;4.13;1.30;;;;;;;17.15;86.36;101626.94;5249219;28;20483;-72
2022/07/01 09:51:16;;;;;;;5.35;1.40;;;;;;;17.36;86.48;101626.78;5250129;28;20021;-72
2022/07/01 09:53:48;;;;;;;4.38;1.42;;;;;;;17.68;83.75;101631.88;5247671;28;20406;-73
2022/07/01 09:56:19;;;;;;;5.60;1.30;;;;;;;17.52;81.15;101629.75;5249588;28;20045;-72
2022/07/01 09:58:51;;;;;;;6.65;1.30;;;;;;;17.48;84.33;101632.88;5247013;28;20033;-72
2022/07/01 10:01:23;;;;;;;5.85;1.30;;;;;;;17.69;83.47;101630.88;5251438;28;20029;-73
2022/07/01 10:03:56;;;;;;;2.58;0.82;;;;;;;17.60;80.73;101631.72;5249594;28;20025;-73
2022/07/01 10:06:33;;;;;;;4.53;0.73;;;;;;;17.46;81.02;101635.72;5251089;28;20055;-73
2022/07/01 10:09:48;;;;;;;3.20;0.80;;;;;;;17.51;87.83;101640.69;5248532;28;20040;-73
2022/07/01 10:12:38;;;;;;;4.05;1.00;;;;;;;17.69;77.90;101638.97;5217434;28;20048;-73
2022/07/01 10:15:15;;;;;;;4.70;1.35;;;;;;;17.95;78.06;101636.53;5251615;28;20056;-72
2022/07/01 10:17:49;;;;;;;6.20;1.00;;;;;;;18.28;85.10;101644.25;5253293;28;20095;-73
2022/07/01 10:20:24;;;;;;;;;;;;;;;18.05;84.34;101643.75;5256281;28;20024;-73
2022/07/01 10:23:08;;;;;;;2.92;0.70;;;;;;;18.38;78.65;101650.44;5252503;28;19979;-73
2022/07/01 10:25:45;;;;;;;5.93;0.97;;;;;;;18.57;74.89;101658.47;5249996;28;20037;-72
2022/07/01 10:28:23;;;;;;;3.75;0.70;;;;;;;18.93;74.76;101660.44;5250541;28;20332;-73
2022/07/01 10:31:04;;;;;;;2.83;0.70;;;;;;;18.99;77.58;101674.19;5246103;28;20406;-73
2022/07/01 10:33:43;;;;;;;3.83;1.00;;;;;;;19.32;74.65;101670.97;5250473;28;20028;-73
2022/07/01 10:36:19;;;;;;;3.85;1.10;;;;;;;19.13;72.59;101678.22;5255549;28;20047;-72
2022/07/01 10:41:42;;;;;;;3.58;1.73;;;;;;;19.01;74.09;101674.03;5254044;28;20079;-72
2022/07/01 10:44:15;;;;;;;4.38;0.80;;;;;;;19.25;72.29;101673.44;5253161;28;20087;-72
2022/07/01 10:46:49;;;;;;;2.78;0.70;;;;;;;19.17;70.44;101665.25;5250157;28;20025;-72
2022/07/01 10:49:40;;;;;;;3.90;0.88;;;;;;;19.23;77.48;101669.19;5254688;28;20136;-72
2022/07/01 10:52:20;;;;;;;5.88;1.73;;;;;;;19.29;73.40;101661.31;5255191;28;20029;-72
2022/07/01 10:54:56;;;;;;;8.10;5.30;;;;;;;19.36;72.47;101669.66;5253507;28;20024;-72
2022/07/01 10:57:31;;;;;;;5.85;2.00;;;;;;;19.17;67.36;101663.38;5252405;28;20033;-73
2022/07/01 11:00:02;;;;;;;7.32;2.20;;;;;;;19.01;69.04;101657.81;5254129;28;20031;-72
2022/07/01 11:02:36;;;;;;;3.38;1.33;;;;;;;18.91;70.96;101663.28;5254484;28;20029;-72
2022/07/01 11:05:10;;;;;;;2.92;1.02;;;;;;;19.00;71.81;101656.09;5253293;28;20032;-71
2022/07/01 11:07:45;;;;;;;4.78;0.90;;;;;;;19.35;72.73;101659.84;5251230;28;20037;-71
2022/07/01 11:10:19;;;;;;;3.67;0.75;;;;;;;19.41;72.70;101653.81;5251207;28;20499;-73
2022/07/01 11:12:51;;;;;;;5.20;1.38;;;;;;;19.26;69.67;101655.38;5244036;28;20139;-72
2022/07/01 11:15:22;;;;;;;3.90;0.73;;;;;;;19.25;67.81;101643.66;5246661;28;20128;-71
2022/07/01 11:17:56;;;;;;;6.07;1.13;;;;;;;19.30;68.04;101649.47;5246757;28;20041;-73
2022/07/01 11:20:30;;;;;;;3.47;0.90;;;;;;;19.48;67.90;101646.75;5249103;28;20029;-71
2022/07/01 11:23:02;;;;;;;4.20;0.82;;;;;;;19.64;66.12;101642.50;5240424;28;20500;-72
2022/07/01 11:25:34;;;;;;;3.38;0.90;;;;;;;19.73;67.31;101633.44;5235220;28;20033;-72
2022/07/01 11:28:06;;;;;;;4.32;1.05;;;;;;;20.05;67.03;101632.81;5230241;28;20036;-73
2022/07/01 11:30:37;;;;;;;5.13;0.90;;;;;;;20.26;66.23;101637.00;5240101;28;20134;-73
2022/07/01 11:33:10;;;;;;;4.18;0.90;;;;;;;20.27;67.28;101636.84;5238113;28;20090;-72
2022/07/01 11:41:25;;;;;;;2.45;0.57;;;;;;;20.27;63.49;101638.69;5240015;28;20123;-72
2022/07/01 11:43:56;;;;;;;3.55;0.60;;;;;;;19.97;60.76;101638.19;5240641;28;20040;-71
2022/07/01 11:46:27;;;;;;;2.58;0.50;;;;;;;19.96;60.59;101639.19;5239125;28;20293;-72
2022/07/01 11:48:58;;;;;;;4.55;0.60;;;;;;;19.68;60.34;101630.34;5244898;28;20510;-71
2022/07/01 11:51:30;;;;;;;2.65;0.50;;;;;;;19.68;60.37;101623.06;5246103;28;20136;-71
2022/07/01 11:54:01;;;;;;;3.75;0.70;;;;;;;19.72;62.55;101629.88;5240756;28;20028;-70